sensor_id;sensor_type;location;lat;lon;timestamp;P1;durP1;ratioP1;P2;durP2;ratioP2
53797;SDS011;39707;45.384;9.300;2024-03-23T00:55:58;5.20;;;4.68;;
53797;SDS011;39707;45.384;9.300;2024-03-23T00:58:24;5.05;;;3.67;;
53797;SDS011;39707;45.384;9.300;2024-03-23T01:00:50;5.50;;;3.92;;
53797;SDS011;39707;45.384;9.300;2024-03-23T01:03:16;10.38;;;5.65;;
53797;SDS011;39707;45.384;9.300;2024-03-23T01:05:42;5.20;;;3.42;;
53797;SDS011;39707;45.384;9.300;2024-03-23T01:08:08;13.25;;;4.28;;
53797;SDS011;39707;45.384;9.300;2024-03-23T01:10:34;5.55;;;3.78;;
53797;SDS011;39707;45.384;9.300;2024-03-23T01:13:00;7.97;;;4.43;;
53797;SDS011;39707;45.384;9.300;2024-03-23T01:15:26;6.10;;;4.95;;
53797;SDS011;39707;45.384;9.300;2024-03-23T01:17:52;7.80;;;4.53;;
53797;SDS011;39707;45.384;9.300;2024-03-23T01:20:18;5.00;;;4.38;;
53797;SDS011;39707;45.384;9.300;2024-03-23T01:22:43;6.22;;;5.45;;
53797;SDS011;39707;45.384;9.300;2024-03-23T01:25:09;6.28;;;4.60;;
53797;SDS011;39707;45.384;9.300;2024-03-23T01:27:35;4.35;;;3.42;;
53797;SDS011;39707;45.384;9.300;2024-03-23T01:30:01;8.80;;;5.75;;
53797;SDS011;39707;45.384;9.300;2024-03-23T01:32:27;5.43;;;3.83;;
53797;SDS011;39707;45.384;9.300;2024-03-23T01:34:53;3.97;;;3.67;;
53797;SDS011;39707;45.384;9.300;2024-03-23T01:37:19;6.22;;;5.15;;
53797;SDS011;39707;45.384;9.300;2024-03-23T01:39:45;10.57;;;5.15;;
53797;SDS011;39707;45.384;9.300;2024-03-23T01:42:12;12.63;;;5.70;;
53797;SDS011;39707;45.384;9.300;2024-03-23T01:44:38;5.50;;;4.00;;
53797;SDS011;39707;45.384;9.300;2024-03-23T01:47:04;5.35;;;4.05;;
53797;SDS011;39707;45.384;9.300;2024-03-23T01:49:30;10.05;;;4.45;;
53797;SDS011;39707;45.384;9.300;2024-03-23T01:51:56;4.35;;;4.03;;
53797;SDS011;39707;45.384;9.300;2024-03-23T01:54:22;6.03;;;5.47;;
53797;SDS011;39707;45.384;9.300;2024-03-23T01:56:48;4.00;;;3.67;;
53797;SDS011;39707;45.384;9.300;2024-03-23T01:59:14;7.28;;;6.28;;
53797;SDS011;39707;45.384;9.300;2024-03-23T02:01:40;8.75;;;4.68;;
53797;SDS011;39707;45.384;9.300;2024-03-23T02:04:06;6.97;;;5.05;;
53797;SDS011;39707;45.384;9.300;2024-03-23T02:09:00;6.25;;;4.30;;
53797;SDS011;39707;45.384;9.300;2024-03-23T02:11:26;5.25;;;4.70;;
53797;SDS011;39707;45.384;9.300;2024-03-23T02:13:52;5.20;;;2.72;;
53797;SDS011;39707;45.384;9.300;2024-03-23T02:16:18;3.60;;;3.25;;
53797;SDS011;39707;45.384;9.300;2024-03-23T02:18:44;4.93;;;2.92;;
53797;SDS011;39707;45.384;9.300;2024-03-23T02:21:10;3.05;;;2.83;;
53797;SDS011;39707;45.384;9.300;2024-03-23T02:23:36;10.75;;;2.25;;
53797;SDS011;39707;45.384;9.300;2024-03-23T02:26:02;4.07;;;3.58;;
53797;SDS011;39707;45.384;9.300;2024-03-23T02:28:28;7.65;;;5.95;;
53797;SDS011;39707;45.384;9.300;2024-03-23T02:30:54;6.43;;;4.82;;
53797;SDS011;39707;45.384;9.300;2024-03-23T02:33:20;4.45;;;4.10;;
53797;SDS011;39707;45.384;9.300;2024-03-23T02:35:46;4.03;;;3.67;;
53797;SDS011;39707;45.384;9.300;2024-03-23T02:38:13;3.38;;;3.08;;
53797;SDS011;39707;45.384;9.300;2024-03-23T02:40:39;7.40;;;6.22;;
53797;SDS011;39707;45.384;9.300;2024-03-23T02:43:05;10.30;;;5.53;;
53797;SDS011;39707;45.384;9.300;2024-03-23T02:45:31;4.57;;;4.25;;
53797;SDS011;39707;45.384;9.300;2024-03-23T02:47:57;7.30;;;3.08;;
53797;SDS011;39707;45.384;9.300;2024-03-23T02:50:23;2.88;;;2.65;;
53797;SDS011;39707;45.384;9.300;2024-03-23T02:52:49;5.88;;;3.60;;
53797;SDS011;39707;45.384;9.300;2024-03-23T02:55:15;9.48;;;5.28;;
53797;SDS011;39707;45.384;9.300;2024-03-23T02:57:42;5.97;;;5.47;;
53797;SDS011;39707;45.384;9.300;2024-03-23T03:00:08;6.10;;;4.93;;
53797;SDS011;39707;45.384;9.300;2024-03-23T03:02:35;4.55;;;3.60;;
53797;SDS011;39707;45.384;9.300;2024-03-23T03:05:02;3.95;;;3.63;;
53797;SDS011;39707;45.384;9.300;2024-03-23T03:07:29;9.70;;;4.25;;
53797;SDS011;39707;45.384;9.300;2024-03-23T03:09:55;5.43;;;4.97;;
53797;SDS011;39707;45.384;9.300;2024-03-23T03:12:21;3.72;;;2.45;;
53797;SDS011;39707;45.384;9.300;2024-03-23T03:14:47;9.93;;;6.45;;
53797;SDS011;39707;45.384;9.300;2024-03-23T03:17:13;4.88;;;3.58;;
53797;SDS011;39707;45.384;9.300;2024-03-23T03:19:40;4.03;;;3.20;;
53797;SDS011;39707;45.384;9.300;2024-03-23T03:22:06;3.35;;;3.05;;
53797;SDS011;39707;45.384;9.300;2024-03-23T03:24:32;6.70;;;3.90;;
53797;SDS011;39707;45.384;9.300;2024-03-23T03:26:58;8.02;;;3.95;;
53797;SDS011;39707;45.384;9.300;2024-03-23T03:29:24;5.78;;;4.65;;
53797;SDS011;39707;45.384;9.300;2024-03-23T03:31:50;4.80;;;4.38;;
53797;SDS011;39707;45.384;9.300;2024-03-23T03:34:16;4.22;;;3.38;;
53797;SDS011;39707;45.384;9.300;2024-03-23T03:36:42;6.00;;;3.90;;
53797;SDS011;39707;45.384;9.300;2024-03-23T03:39:07;6.93;;;4.65;;
53797;SDS011;39707;45.384;9.300;2024-03-23T03:41:33;3.55;;;1.58;;
53797;SDS011;39707;45.384;9.300;2024-03-23T03:43:59;5.57;;;3.55;;
53797;SDS011;39707;45.384;9.300;2024-03-23T03:46:27;4.53;;;3.97;;
53797;SDS011;39707;45.384;9.300;2024-03-23T03:48:54;4.75;;;3.83;;
53797;SDS011;39707;45.384;9.300;2024-03-23T03:51:20;3.40;;;2.85;;
53797;SDS011;39707;45.384;9.300;2024-03-23T03:53:46;5.63;;;4.45;;
53797;SDS011;39707;45.384;9.300;2024-03-23T03:56:12;4.82;;;2.88;;
53797;SDS011;39707;45.384;9.300;2024-03-23T03:58:38;7.95;;;4.07;;
53797;SDS011;39707;45.384;9.300;2024-03-23T04:01:05;3.03;;;2.43;;
53797;SDS011;39707;45.384;9.300;2024-03-23T04:03:31;9.50;;;4.45;;
53797;SDS011;39707;45.384;9.300;2024-03-23T04:05:57;3.13;;;1.90;;
53797;SDS011;39707;45.384;9.300;2024-03-23T04:08:23;3.78;;;2.88;;
53797;SDS011;39707;45.384;9.300;2024-03-23T04:10:49;5.60;;;3.45;;
53797;SDS011;39707;45.384;9.300;2024-03-23T04:13:15;3.97;;;3.58;;
53797;SDS011;39707;45.384;9.300;2024-03-23T04:15:41;5.03;;;4.55;;
53797;SDS011;39707;45.384;9.300;2024-03-23T04:18:07;8.40;;;4.47;;
53797;SDS011;39707;45.384;9.300;2024-03-23T04:20:33;10.00;;;5.13;;
53797;SDS011;39707;45.384;9.300;2024-03-23T04:22:59;3.35;;;3.10;;
53797;SDS011;39707;45.384;9.300;2024-03-23T04:25:25;5.30;;;3.55;;
53797;SDS011;39707;45.384;9.300;2024-03-23T04:27:51;7.18;;;3.72;;
53797;SDS011;39707;45.384;9.300;2024-03-23T04:30:17;6.05;;;3.53;;
53797;SDS011;39707;45.384;9.300;2024-03-23T04:32:44;5.03;;;3.88;;
53797;SDS011;39707;45.384;9.300;2024-03-23T04:35:10;6.43;;;3.10;;
53797;SDS011;39707;45.384;9.300;2024-03-23T04:37:39;6.47;;;5.28;;
53797;SDS011;39707;45.384;9.300;2024-03-23T04:40:08;2.60;;;1.67;;
53797;SDS011;39707;45.384;9.300;2024-03-23T04:45:02;3.38;;;2.13;;
53797;SDS011;39707;45.384;9.300;2024-03-23T04:47:28;4.90;;;3.70;;
53797;SDS011;39707;45.384;9.300;2024-03-23T04:49:54;2.20;;;2.08;;
53797;SDS011;39707;45.384;9.300;2024-03-23T04:52:20;10.60;;;4.93;;
53797;SDS011;39707;45.384;9.300;2024-03-23T04:54:46;1.60;;;1.38;;
53797;SDS011;39707;45.384;9.300;2024-03-23T04:57:12;7.30;;;3.92;;
53797;SDS011;39707;45.384;9.300;2024-03-23T04:59:38;3.95;;;3.53;;
53797;SDS011;39707;45.384;9.300;2024-03-23T05:02:04;3.38;;;2.85;;
53797;SDS011;39707;45.384;9.300;2024-03-23T05:04:30;8.35;;;4.93;;
53797;SDS011;39707;45.384;9.300;2024-03-23T05:06:57;6.85;;;4.55;;
53797;SDS011;39707;45.384;9.300;2024-03-23T05:09:23;6.55;;;5.18;;
53797;SDS011;39707;45.384;9.300;2024-03-23T05:11:49;3.33;;;3.13;;
53797;SDS011;39707;45.384;9.300;2024-03-23T05:14:15;5.03;;;3.45;;
53797;SDS011;39707;45.384;9.300;2024-03-23T05:16:41;6.53;;;4.55;;
53797;SDS011;39707;45.384;9.300;2024-03-23T05:19:07;7.70;;;3.03;;
53797;SDS011;39707;45.384;9.300;2024-03-23T05:21:33;7.20;;;2.65;;
53797;SDS011;39707;45.384;9.300;2024-03-23T05:23:59;4.82;;;4.50;;
53797;SDS011;39707;45.384;9.300;2024-03-23T05:26:25;3.75;;;3.40;;
53797;SDS011;39707;45.384;9.300;2024-03-23T05:28:51;4.70;;;4.30;;
53797;SDS011;39707;45.384;9.300;2024-03-23T05:31:24;4.30;;;3.83;;
53797;SDS011;39707;45.384;9.300;2024-03-23T05:33:50;4.55;;;2.13;;
53797;SDS011;39707;45.384;9.300;2024-03-23T05:36:16;3.90;;;3.55;;
53797;SDS011;39707;45.384;9.300;2024-03-23T05:38:43;6.93;;;3.85;;
53797;SDS011;39707;45.384;9.300;2024-03-23T05:41:09;3.78;;;2.50;;
53797;SDS011;39707;45.384;9.300;2024-03-23T05:43:35;5.47;;;5.05;;
53797;SDS011;39707;45.384;9.300;2024-03-23T05:46:01;4.38;;;3.38;;
53797;SDS011;39707;45.384;9.300;2024-03-23T05:48:27;4.80;;;4.45;;
53797;SDS011;39707;45.384;9.300;2024-03-23T05:50:55;7.07;;;4.47;;
53797;SDS011;39707;45.384;9.300;2024-03-23T05:53:21;10.35;;;4.60;;
53797;SDS011;39707;45.384;9.300;2024-03-23T05:55:48;5.03;;;3.72;;
53797;SDS011;39707;45.384;9.300;2024-03-23T05:58:17;4.70;;;4.20;;
53797;SDS011;39707;45.384;9.300;2024-03-23T06:00:46;3.38;;;3.08;;
53797;SDS011;39707;45.384;9.300;2024-03-23T06:03:12;3.08;;;2.88;;
53797;SDS011;39707;45.384;9.300;2024-03-23T06:05:38;6.47;;;4.57;;
53797;SDS011;39707;45.384;9.300;2024-03-23T06:08:04;3.60;;;2.92;;
53797;SDS011;39707;45.384;9.300;2024-03-23T06:10:30;2.78;;;2.55;;
53797;SDS011;39707;45.384;9.300;2024-03-23T06:12:59;4.75;;;3.90;;
53797;SDS011;39707;45.384;9.300;2024-03-23T06:15:25;12.05;;;3.92;;
53797;SDS011;39707;45.384;9.300;2024-03-23T06:17:52;3.53;;;2.90;;
53797;SDS011;39707;45.384;9.300;2024-03-23T06:20:18;3.90;;;3.22;;
53797;SDS011;39707;45.384;9.300;2024-03-23T06:22:44;8.13;;;4.30;;
53797;SDS011;39707;45.384;9.300;2024-03-23T06:25:10;3.60;;;2.40;;
53797;SDS011;39707;45.384;9.300;2024-03-23T06:27:37;3.88;;;3.65;;
53797;SDS011;39707;45.384;9.300;2024-03-23T06:30:04;4.97;;;4.22;;
53797;SDS011;39707;45.384;9.300;2024-03-23T06:32:30;6.13;;;3.40;;
53797;SDS011;39707;45.384;9.300;2024-03-23T06:34:56;4.15;;;3.72;;
53797;SDS011;39707;45.384;9.300;2024-03-23T06:37:22;7.03;;;3.42;;
53797;SDS011;39707;45.384;9.300;2024-03-23T06:39:48;9.73;;;4.75;;
53797;SDS011;39707;45.384;9.300;2024-03-23T06:42:14;2.42;;;2.28;;
53797;SDS011;39707;45.384;9.300;2024-03-23T06:44:40;3.08;;;2.88;;
53797;SDS011;39707;45.384;9.300;2024-03-23T06:47:06;10.57;;;4.75;;
53797;SDS011;39707;45.384;9.300;2024-03-23T06:49:32;3.17;;;2.65;;
53797;SDS011;39707;45.384;9.300;2024-03-23T06:51:58;4.03;;;3.22;;
53797;SDS011;39707;45.384;9.300;2024-03-23T06:54:24;3.95;;;3.55;;
53797;SDS011;39707;45.384;9.300;2024-03-23T06:56:50;7.70;;;4.03;;
53797;SDS011;39707;45.384;9.300;2024-03-23T06:59:16;4.20;;;2.90;;
53797;SDS011;39707;45.384;9.300;2024-03-23T07:01:42;5.15;;;3.53;;
53797;SDS011;39707;45.384;9.300;2024-03-23T07:04:08;4.07;;;3.60;;
53797;SDS011;39707;45.384;9.300;2024-03-23T07:06:34;3.78;;;3.53;;
53797;SDS011;39707;45.384;9.300;2024-03-23T07:09:07;7.05;;;2.75;;
53797;SDS011;39707;45.384;9.300;2024-03-23T07:11:33;5.57;;;4.07;;
53797;SDS011;39707;45.384;9.300;2024-03-23T07:13:59;8.68;;;4.38;;
53797;SDS011;39707;45.384;9.300;2024-03-23T07:16:27;2.60;;;2.45;;
53797;SDS011;39707;45.384;9.300;2024-03-23T07:18:52;3.67;;;2.80;;
53797;SDS011;39707;45.384;9.300;2024-03-23T07:21:20;4.07;;;3.42;;
53797;SDS011;39707;45.384;9.300;2024-03-23T07:23:46;2.72;;;2.63;;
53797;SDS011;39707;45.384;9.300;2024-03-23T07:26:12;3.88;;;2.75;;
53797;SDS011;39707;45.384;9.300;2024-03-23T07:28:38;6.90;;;4.75;;
53797;SDS011;39707;45.384;9.300;2024-03-23T07:31:12;3.35;;;3.13;;
53797;SDS011;39707;45.384;9.300;2024-03-23T07:33:46;8.48;;;2.90;;
53797;SDS011;39707;45.384;9.300;2024-03-23T07:36:12;5.70;;;3.60;;
53797;SDS011;39707;45.384;9.300;2024-03-23T07:38:41;3.80;;;2.72;;
53797;SDS011;39707;45.384;9.300;2024-03-23T07:41:08;1.92;;;1.77;;
53797;SDS011;39707;45.384;9.300;2024-03-23T07:43:34;2.15;;;1.95;;
53797;SDS011;39707;45.384;9.300;2024-03-23T07:46:01;2.65;;;2.40;;
53797;SDS011;39707;45.384;9.300;2024-03-23T07:48:28;4.30;;;2.83;;
53797;SDS011;39707;45.384;9.300;2024-03-23T07:51:01;3.10;;;2.83;;
53797;SDS011;39707;45.384;9.300;2024-03-23T07:53:28;3.47;;;3.13;;
53797;SDS011;39707;45.384;9.300;2024-03-23T07:55:57;2.65;;;2.33;;
53797;SDS011;39707;45.384;9.300;2024-03-23T07:58:24;2.20;;;1.73;;
53797;SDS011;39707;45.384;9.300;2024-03-23T08:00:50;3.58;;;3.22;;
53797;SDS011;39707;45.384;9.300;2024-03-23T08:03:16;7.15;;;3.42;;
53797;SDS011;39707;45.384;9.300;2024-03-23T08:05:42;2.22;;;2.03;;
53797;SDS011;39707;45.384;9.300;2024-03-23T08:08:08;2.80;;;1.67;;
53797;SDS011;39707;45.384;9.300;2024-03-23T08:10:35;2.57;;;2.43;;
53797;SDS011;39707;45.384;9.300;2024-03-23T08:13:01;3.92;;;2.67;;
53797;SDS011;39707;45.384;9.300;2024-03-23T08:15:29;1.65;;;1.20;;
53797;SDS011;39707;45.384;9.300;2024-03-23T08:17:57;3.92;;;3.55;;
53797;SDS011;39707;45.384;9.300;2024-03-23T08:20:23;1.85;;;1.70;;
53797;SDS011;39707;45.384;9.300;2024-03-23T08:22:49;2.53;;;1.90;;
53797;SDS011;39707;45.384;9.300;2024-03-23T08:25:15;5.32;;;2.33;;
53797;SDS011;39707;45.384;9.300;2024-03-23T08:27:43;1.70;;;1.40;;
53797;SDS011;39707;45.384;9.300;2024-03-23T08:32:36;7.63;;;1.45;;
53797;SDS011;39707;45.384;9.300;2024-03-23T08:35:02;0.82;;;0.80;;
53797;SDS011;39707;45.384;9.300;2024-03-23T08:37:28;1.40;;;1.33;;
53797;SDS011;39707;45.384;9.300;2024-03-23T08:39:54;3.45;;;1.42;;
53797;SDS011;39707;45.384;9.300;2024-03-23T08:42:20;1.75;;;1.63;;
53797;SDS011;39707;45.384;9.300;2024-03-23T08:44:46;1.58;;;1.48;;
53797;SDS011;39707;45.384;9.300;2024-03-23T08:47:15;5.07;;;1.77;;
53797;SDS011;39707;45.384;9.300;2024-03-23T08:49:41;4.32;;;2.42;;
53797;SDS011;39707;45.384;9.300;2024-03-23T08:52:07;2.83;;;2.47;;
53797;SDS011;39707;45.384;9.300;2024-03-23T08:54:33;1.75;;;0.70;;
53797;SDS011;39707;45.384;9.300;2024-03-23T08:56:59;1.50;;;1.38;;
53797;SDS011;39707;45.384;9.300;2024-03-23T08:59:25;1.65;;;1.02;;
53797;SDS011;39707;45.384;9.300;2024-03-23T09:01:52;2.28;;;2.08;;
53797;SDS011;39707;45.384;9.300;2024-03-23T09:04:18;3.90;;;1.97;;
53797;SDS011;39707;45.384;9.300;2024-03-23T09:06:44;1.40;;;1.30;;
53797;SDS011;39707;45.384;9.300;2024-03-23T09:09:10;3.08;;;2.17;;
53797;SDS011;39707;45.384;9.300;2024-03-23T09:11:36;1.92;;;1.20;;
53797;SDS011;39707;45.384;9.300;2024-03-23T09:14:03;3.90;;;2.42;;
53797;SDS011;39707;45.384;9.300;2024-03-23T09:16:29;2.05;;;1.95;;
53797;SDS011;39707;45.384;9.300;2024-03-23T09:18:54;4.97;;;3.92;;
53797;SDS011;39707;45.384;9.300;2024-03-23T09:21:20;0.88;;;0.85;;
53797;SDS011;39707;45.384;9.300;2024-03-23T09:23:46;1.50;;;1.40;;
53797;SDS011;39707;45.384;9.300;2024-03-23T09:26:12;5.28;;;2.17;;
53797;SDS011;39707;45.384;9.300;2024-03-23T09:28:38;0.88;;;0.88;;
53797;SDS011;39707;45.384;9.300;2024-03-23T09:33:30;1.05;;;0.98;;
53797;SDS011;39707;45.384;9.300;2024-03-23T09:35:56;1.65;;;1.17;;
53797;SDS011;39707;45.384;9.300;2024-03-23T09:38:22;1.25;;;1.17;;
53797;SDS011;39707;45.384;9.300;2024-03-23T09:40:52;1.90;;;1.80;;
53797;SDS011;39707;45.384;9.300;2024-03-23T09:43:18;1.13;;;0.80;;
53797;SDS011;39707;45.384;9.300;2024-03-23T09:45:44;3.42;;;2.15;;
53797;SDS011;39707;45.384;9.300;2024-03-23T09:48:11;1.85;;;1.75;;
53797;SDS011;39707;45.384;9.300;2024-03-23T09:50:40;5.47;;;1.55;;
53797;SDS011;39707;45.384;9.300;2024-03-23T09:53:06;2.45;;;1.50;;
53797;SDS011;39707;45.384;9.300;2024-03-23T09:55:32;1.45;;;1.38;;
53797;SDS011;39707;45.384;9.300;2024-03-23T10:00:26;1.60;;;1.50;;
53797;SDS011;39707;45.384;9.300;2024-03-23T10:02:54;0.80;;;0.80;;
53797;SDS011;39707;45.384;9.300;2024-03-23T10:05:21;1.40;;;1.25;;
53797;SDS011;39707;45.384;9.300;2024-03-23T10:07:48;1.73;;;1.17;;
53797;SDS011;39707;45.384;9.300;2024-03-23T10:10:15;2.20;;;2.07;;
53797;SDS011;39707;45.384;9.300;2024-03-23T10:12:45;2.28;;;2.17;;
53797;SDS011;39707;45.384;9.300;2024-03-23T10:15:22;1.70;;;1.60;;
53797;SDS011;39707;45.384;9.300;2024-03-23T10:17:48;4.07;;;2.50;;
53797;SDS011;39707;45.384;9.300;2024-03-23T10:20:20;2.63;;;2.40;;
53797;SDS011;39707;45.384;9.300;2024-03-23T10:22:47;2.22;;;2.03;;
53797;SDS011;39707;45.384;9.300;2024-03-23T10:25:14;1.83;;;1.05;;
53797;SDS011;39707;45.384;9.300;2024-03-23T10:27:40;2.00;;;0.98;;
53797;SDS011;39707;45.384;9.300;2024-03-23T10:32:34;0.93;;;0.93;;
53797;SDS011;39707;45.384;9.300;2024-03-23T10:35:19;2.03;;;1.77;;
53797;SDS011;39707;45.384;9.300;2024-03-23T10:37:48;1.70;;;1.60;;
53797;SDS011;39707;45.384;9.300;2024-03-23T10:40:15;1.42;;;1.35;;
53797;SDS011;39707;45.384;9.300;2024-03-23T10:42:41;2.22;;;2.03;;
53797;SDS011;39707;45.384;9.300;2024-03-23T10:45:08;3.28;;;2.63;;
53797;SDS011;39707;45.384;9.300;2024-03-23T10:47:35;4.22;;;2.35;;
53797;SDS011;39707;45.384;9.300;2024-03-23T10:50:01;0.98;;;0.77;;
53797;SDS011;39707;45.384;9.300;2024-03-23T10:52:27;1.40;;;1.30;;
53797;SDS011;39707;45.384;9.300;2024-03-23T10:54:53;3.28;;;2.45;;
53797;SDS011;39707;45.384;9.300;2024-03-23T10:57:21;6.65;;;1.98;;
53797;SDS011;39707;45.384;9.300;2024-03-23T10:59:48;1.60;;;1.00;;
53797;SDS011;39707;45.384;9.300;2024-03-23T11:02:18;2.13;;;1.88;;
53797;SDS011;39707;45.384;9.300;2024-03-23T11:04:44;1.48;;;1.38;;
53797;SDS011;39707;45.384;9.300;2024-03-23T11:07:31;2.97;;;1.45;;
53797;SDS011;39707;45.384;9.300;2024-03-23T11:09:58;2.83;;;1.48;;
53797;SDS011;39707;45.384;9.300;2024-03-23T11:14:55;1.45;;;1.38;;
53797;SDS011;39707;45.384;9.300;2024-03-23T11:17:22;1.00;;;0.95;;
53797;SDS011;39707;45.384;9.300;2024-03-23T11:20:00;2.28;;;2.08;;
53797;SDS011;39707;45.384;9.300;2024-03-23T11:22:40;2.33;;;1.92;;
53797;SDS011;39707;45.384;9.300;2024-03-23T11:27:38;1.05;;;0.98;;
53797;SDS011;39707;45.384;9.300;2024-03-23T11:30:11;1.15;;;0.85;;
53797;SDS011;39707;45.384;9.300;2024-03-23T11:32:37;0.40;;;0.40;;
53797;SDS011;39707;45.384;9.300;2024-03-23T11:35:03;1.30;;;1.20;;
53797;SDS011;39707;45.384;9.300;2024-03-23T11:37:29;2.42;;;1.33;;
53797;SDS011;39707;45.384;9.300;2024-03-23T11:39:55;1.00;;;0.85;;
53797;SDS011;39707;45.384;9.300;2024-03-23T11:42:21;2.45;;;1.27;;
53797;SDS011;39707;45.384;9.300;2024-03-23T11:44:47;1.13;;;1.08;;
53797;SDS011;39707;45.384;9.300;2024-03-23T11:47:13;1.17;;;1.08;;
53797;SDS011;39707;45.384;9.300;2024-03-23T11:49:39;0.63;;;0.55;;
53797;SDS011;39707;45.384;9.300;2024-03-23T11:52:08;1.20;;;0.75;;
53797;SDS011;39707;45.384;9.300;2024-03-23T11:54:34;3.13;;;1.65;;
53797;SDS011;39707;45.384;9.300;2024-03-23T11:57:01;1.65;;;1.23;;
53797;SDS011;39707;45.384;9.300;2024-03-23T11:59:32;0.77;;;0.77;;
53797;SDS011;39707;45.384;9.300;2024-03-23T12:01:58;1.00;;;0.95;;
53797;SDS011;39707;45.384;9.300;2024-03-23T12:04:27;0.50;;;0.50;;
53797;SDS011;39707;45.384;9.300;2024-03-23T12:07:09;1.30;;;1.20;;
53797;SDS011;39707;45.384;9.300;2024-03-23T12:09:35;0.77;;;0.77;;
53797;SDS011;39707;45.384;9.300;2024-03-23T12:12:05;1.17;;;1.02;;
53797;SDS011;39707;45.384;9.300;2024-03-23T12:14:31;1.13;;;0.60;;
53797;SDS011;39707;45.384;9.300;2024-03-23T12:17:06;0.50;;;0.20;;
53797;SDS011;39707;45.384;9.300;2024-03-23T12:19:32;2.70;;;1.35;;
53797;SDS011;39707;45.384;9.300;2024-03-23T12:21:58;1.00;;;0.88;;
53797;SDS011;39707;45.384;9.300;2024-03-23T12:24:25;0.55;;;0.55;;
53797;SDS011;39707;45.384;9.300;2024-03-23T12:26:51;0.68;;;0.45;;
53797;SDS011;39707;45.384;9.300;2024-03-23T12:29:17;0.75;;;0.70;;
53797;SDS011;39707;45.384;9.300;2024-03-23T12:31:45;0.95;;;0.82;;
53797;SDS011;39707;45.384;9.300;2024-03-23T12:34:11;0.30;;;0.30;;
53797;SDS011;39707;45.384;9.300;2024-03-23T12:36:37;0.55;;;0.55;;
53797;SDS011;39707;45.384;9.300;2024-03-23T12:39:02;0.60;;;0.60;;
53797;SDS011;39707;45.384;9.300;2024-03-23T12:41:28;1.27;;;0.77;;
53797;SDS011;39707;45.384;9.300;2024-03-23T12:43:54;1.17;;;1.15;;
53797;SDS011;39707;45.384;9.300;2024-03-23T12:46:20;0.60;;;0.55;;
53797;SDS011;39707;45.384;9.300;2024-03-23T12:48:48;0.93;;;0.93;;
53797;SDS011;39707;45.384;9.300;2024-03-23T12:51:14;2.15;;;1.58;;
53797;SDS011;39707;45.384;9.300;2024-03-23T12:53:40;0.30;;;0.30;;
53797;SDS011;39707;45.384;9.300;2024-03-23T12:56:06;1.30;;;1.17;;
53797;SDS011;39707;45.384;9.300;2024-03-23T12:58:32;1.73;;;1.63;;
53797;SDS011;39707;45.384;9.300;2024-03-23T13:00:59;0.47;;;0.47;;
53797;SDS011;39707;45.384;9.300;2024-03-23T13:03:25;1.20;;;1.10;;
53797;SDS011;39707;45.384;9.300;2024-03-23T13:05:51;0.60;;;0.35;;
53797;SDS011;39707;45.384;9.300;2024-03-23T13:08:17;1.05;;;0.85;;
53797;SDS011;39707;45.384;9.300;2024-03-23T13:10:43;4.95;;;0.77;;
53797;SDS011;39707;45.384;9.300;2024-03-23T13:13:10;1.33;;;1.23;;
53797;SDS011;39707;45.384;9.300;2024-03-23T13:15:38;0.35;;;0.35;;
53797;SDS011;39707;45.384;9.300;2024-03-23T13:18:04;0.45;;;0.45;;
53797;SDS011;39707;45.384;9.300;2024-03-23T13:20:30;0.85;;;0.82;;
53797;SDS011;39707;45.384;9.300;2024-03-23T13:22:56;2.75;;;1.13;;
53797;SDS011;39707;45.384;9.300;2024-03-23T13:25:22;0.57;;;0.47;;
53797;SDS011;39707;45.384;9.300;2024-03-23T13:27:48;4.30;;;3.00;;
53797;SDS011;39707;45.384;9.300;2024-03-23T13:30:14;2.33;;;1.63;;
53797;SDS011;39707;45.384;9.300;2024-03-23T13:32:41;0.80;;;0.65;;
53797;SDS011;39707;45.384;9.300;2024-03-23T13:35:07;1.38;;;0.55;;
53797;SDS011;39707;45.384;9.300;2024-03-23T13:37:33;4.18;;;1.15;;
53797;SDS011;39707;45.384;9.300;2024-03-23T13:39:58;1.55;;;1.45;;
53797;SDS011;39707;45.384;9.300;2024-03-23T13:42:25;1.23;;;0.83;;
53797;SDS011;39707;45.384;9.300;2024-03-23T13:44:51;2.72;;;1.63;;
53797;SDS011;39707;45.384;9.300;2024-03-23T13:47:17;0.55;;;0.55;;
53797;SDS011;39707;45.384;9.300;2024-03-23T13:49:43;2.40;;;1.38;;
53797;SDS011;39707;45.384;9.300;2024-03-23T13:52:09;1.52;;;1.13;;
53797;SDS011;39707;45.384;9.300;2024-03-23T13:54:35;2.42;;;1.77;;
53797;SDS011;39707;45.384;9.300;2024-03-23T13:57:02;2.63;;;1.20;;
53797;SDS011;39707;45.384;9.300;2024-03-23T13:59:29;0.68;;;0.68;;
53797;SDS011;39707;45.384;9.300;2024-03-23T14:01:55;0.83;;;0.83;;
53797;SDS011;39707;45.384;9.300;2024-03-23T14:04:21;0.60;;;0.60;;
53797;SDS011;39707;45.384;9.300;2024-03-23T14:06:48;1.17;;;0.45;;
53797;SDS011;39707;45.384;9.300;2024-03-23T14:09:15;1.45;;;0.93;;
53797;SDS011;39707;45.384;9.300;2024-03-23T14:11:45;0.90;;;0.90;;
53797;SDS011;39707;45.384;9.300;2024-03-23T14:14:11;0.73;;;0.73;;
53797;SDS011;39707;45.384;9.300;2024-03-23T14:16:37;0.75;;;0.63;;
53797;SDS011;39707;45.384;9.300;2024-03-23T14:19:03;0.68;;;0.68;;
53797;SDS011;39707;45.384;9.300;2024-03-23T14:21:30;0.77;;;0.77;;
53797;SDS011;39707;45.384;9.300;2024-03-23T14:23:56;0.63;;;0.63;;
53797;SDS011;39707;45.384;9.300;2024-03-23T14:26:22;2.60;;;1.25;;
53797;SDS011;39707;45.384;9.300;2024-03-23T14:28:49;0.73;;;0.73;;
53797;SDS011;39707;45.384;9.300;2024-03-23T14:31:15;0.28;;;0.28;;
53797;SDS011;39707;45.384;9.300;2024-03-23T14:33:41;0.40;;;0.40;;
53797;SDS011;39707;45.384;9.300;2024-03-23T14:36:12;0.73;;;0.60;;
53797;SDS011;39707;45.384;9.300;2024-03-23T14:38:38;0.50;;;0.45;;
53797;SDS011;39707;45.384;9.300;2024-03-23T14:41:04;1.70;;;1.58;;
53797;SDS011;39707;45.384;9.300;2024-03-23T14:43:30;0.80;;;0.80;;
53797;SDS011;39707;45.384;9.300;2024-03-23T14:46:14;1.20;;;1.08;;
53797;SDS011;39707;45.384;9.300;2024-03-23T14:48:41;0.50;;;0.50;;
53797;SDS011;39707;45.384;9.300;2024-03-23T14:51:08;0.50;;;0.50;;
53797;SDS011;39707;45.384;9.300;2024-03-23T14:53:35;7.68;;;1.42;;
53797;SDS011;39707;45.384;9.300;2024-03-23T14:56:01;0.75;;;0.75;;
53797;SDS011;39707;45.384;9.300;2024-03-23T14:58:27;0.60;;;0.60;;
53797;SDS011;39707;45.384;9.300;2024-03-23T15:01:03;0.28;;;0.28;;
53797;SDS011;39707;45.384;9.300;2024-03-23T15:03:29;4.28;;;0.65;;
53797;SDS011;39707;45.384;9.300;2024-03-23T15:05:56;2.72;;;1.00;;
53797;SDS011;39707;45.384;9.300;2024-03-23T15:08:22;0.55;;;0.55;;
53797;SDS011;39707;45.384;9.300;2024-03-23T15:10:49;1.20;;;1.10;;
53797;SDS011;39707;45.384;9.300;2024-03-23T15:13:15;0.40;;;0.40;;
53797;SDS011;39707;45.384;9.300;2024-03-23T15:15:44;0.75;;;0.75;;
53797;SDS011;39707;45.384;9.300;2024-03-23T15:18:13;0.40;;;0.40;;
53797;SDS011;39707;45.384;9.300;2024-03-23T15:20:53;1.75;;;1.25;;
53797;SDS011;39707;45.384;9.300;2024-03-23T15:23:19;0.65;;;0.55;;
53797;SDS011;39707;45.384;9.300;2024-03-23T15:25:45;0.98;;;0.80;;
53797;SDS011;39707;45.384;9.300;2024-03-23T15:28:11;1.05;;;0.85;;
53797;SDS011;39707;45.384;9.300;2024-03-23T15:30:38;1.75;;;0.88;;
53797;SDS011;39707;45.384;9.300;2024-03-23T15:33:05;2.15;;;1.35;;
53797;SDS011;39707;45.384;9.300;2024-03-23T15:35:31;0.32;;;0.32;;
53797;SDS011;39707;45.384;9.300;2024-03-23T15:37:57;1.48;;;0.60;;
53797;SDS011;39707;45.384;9.300;2024-03-23T15:40:23;0.77;;;0.77;;
53797;SDS011;39707;45.384;9.300;2024-03-23T15:42:49;0.30;;;0.30;;
53797;SDS011;39707;45.384;9.300;2024-03-23T15:45:15;0.60;;;0.60;;
53797;SDS011;39707;45.384;9.300;2024-03-23T15:47:41;1.23;;;1.05;;
53797;SDS011;39707;45.384;9.300;2024-03-23T15:50:07;2.42;;;0.45;;
53797;SDS011;39707;45.384;9.300;2024-03-23T15:52:36;0.50;;;0.50;;
53797;SDS011;39707;45.384;9.300;2024-03-23T15:55:05;1.13;;;1.02;;
53797;SDS011;39707;45.384;9.300;2024-03-23T15:57:32;5.22;;;2.72;;
53797;SDS011;39707;45.384;9.300;2024-03-23T15:59:58;2.67;;;2.13;;